Time;durP1;ratioP1;P1;durP2;ratioP2;P2;SDS_P1;SDS_P2;PMS_P1;PMS_P2;Temp;Humidity;BMP_temperature;BMP_pressure;BME280_temperature;BME280_humidity;BME280_pressure;Samples;Min_cycle;Max_cycle;Signal;HPM_P1;HPM_P2
2024/01/09 00:00:42;;;;;;;11.35;2.35;;;4.70;99.90;;;;;;5145081;27;20184;-79
2024/01/09 00:03:08;;;;;;;4.15;1.67;;;4.70;99.90;;;;;;5122164;27;20550;-79
2024/01/09 00:05:34;;;;;;;6.82;1.52;;;4.70;99.90;;;;;;5127397;27;20015;-79
2024/01/09 00:07:59;;;;;;;7.32;1.70;;;4.70;99.90;;;;;;5155319;27;20033;-78
2024/01/09 00:10:25;;;;;;;5.60;1.55;;;4.70;99.90;;;;;;5155340;27;20103;-77
2024/01/09 00:12:51;;;;;;;7.22;1.52;;;4.70;99.90;;;;;;5155122;27;20027;-79
2024/01/09 00:15:17;;;;;;;4.90;1.80;;;4.70;99.90;;;;;;5136732;27;20345;-80
2024/01/09 00:17:42;;;;;;;7.82;1.83;;;4.70;99.90;;;;;;5120339;27;20078;-80
2024/01/09 00:20:09;;;;;;;6.93;1.65;;;4.70;99.90;;;;;;5155349;27;20434;-79
2024/01/09 00:22:35;;;;;;;12.23;2.25;;;4.70;99.90;;;;;;5155072;27;20115;-79
2024/01/09 00:25:00;;;;;;;7.68;2.10;;;4.70;99.90;;;;;;5154975;27;20030;-79
2024/01/09 00:27:26;;;;;;;9.80;1.80;;;4.70;99.90;;;;;;5155007;27;20026;-78
2024/01/09 00:29:52;;;;;;;2.83;1.65;;;4.70;99.90;;;;;;5153826;27;20427;-78
2024/01/09 00:32:18;;;;;;;6.80;1.60;;;4.70;99.90;;;;;;5154830;27;20033;-78
2024/01/09 00:34:43;;;;;;;6.90;1.92;;;4.70;99.90;;;;;;5153947;27;20023;-78
2024/01/09 00:37:09;;;;;;;3.90;1.30;;;4.70;99.90;;;;;;5154587;27;20030;-79
2024/01/09 00:39:35;;;;;;;5.75;1.92;;;4.70;99.90;;;;;;5154679;27;20372;-80
2024/01/09 00:42:00;;;;;;;4.57;1.60;;;4.70;99.90;;;;;;5154725;27;20034;-80
2024/01/09 00:44:26;;;;;;;5.35;1.60;;;4.80;99.90;;;;;;5154903;27;20459;-78
2024/01/09 00:46:52;;;;;;;6.65;1.80;;;4.70;99.90;;;;;;5153869;27;20022;-77
2024/01/09 00:49:17;;;;;;;7.15;1.60;;;4.80;99.90;;;;;;5154110;27;20026;-78
2024/01/09 00:51:43;;;;;;;4.47;1.45;;;4.80;99.90;;;;;;5154028;27;20026;-79
2024/01/09 00:54:09;;;;;;;10.52;1.90;;;4.80;99.90;;;;;;5154862;27;20018;-77
2024/01/09 00:56:34;;;;;;;6.35;1.55;;;4.80;99.90;;;;;;5154591;27;20138;-79
2024/01/09 00:59:00;;;;;;;6.53;1.90;;;4.80;99.90;;;;;;5154091;27;20018;-81
2024/01/09 01:01:26;;;;;;;7.50;1.75;;;4.70;99.90;;;;;;5155153;27;20015;-79
2024/01/09 01:03:52;;;;;;;9.00;2.40;;;4.80;99.90;;;;;;5135550;27;20083;-80
2024/01/09 01:06:17;;;;;;;8.68;1.38;;;4.80;99.90;;;;;;5154576;27;20026;-81
2024/01/09 01:08:43;;;;;;;8.18;1.85;;;4.70;99.90;;;;;;5154806;27;20079;-80
2024/01/09 01:11:09;;;;;;;5.30;1.75;;;4.70;99.90;;;;;;5135601;27;20033;-79
2024/01/09 01:13:34;;;;;;;10.63;2.25;;;4.70;99.90;;;;;;5154517;27;20332;-80
2024/01/09 01:16:00;;;;;;;16.00;1.70;;;4.70;99.90;;;;;;5153939;27;20027;-80
2024/01/09 01:18:26;;;;;;;14.02;1.80;;;4.70;99.90;;;;;;5155790;27;20044;-78
2024/01/09 01:20:52;;;;;;;12.13;2.17;;;4.60;99.90;;;;;;5155251;27;20071;-80
2024/01/09 01:23:18;;;;;;;10.68;2.08;;;4.70;99.90;;;;;;5151405;27;20023;-86
2024/01/09 01:25:44;;;;;;;10.60;2.20;;;4.70;99.90;;;;;;5134107;27;20078;-82
2024/01/09 01:28:10;;;;;;;7.70;1.60;;;4.70;99.90;;;;;;5134819;27;20023;-83
2024/01/09 01:30:35;;;;;;;7.25;1.60;;;4.70;99.90;;;;;;5115621;27;20031;-83
2024/01/09 01:33:03;;;;;;;6.38;1.58;;;4.60;99.90;;;;;;5133213;27;20015;-81
2024/01/09 01:35:28;;;;;;;7.70;1.27;;;4.70;99.90;;;;;;5134241;27;20023;-81
2024/01/09 01:37:54;;;;;;;10.70;2.80;;;4.70;99.90;;;;;;5132538;27;20026;-80
2024/01/09 01:40:20;;;;;;;8.30;1.80;;;4.80;99.90;;;;;;5133672;27;20034;-81
2024/01/09 01:42:46;;;;;;;8.00;2.53;;;4.70;99.90;;;;;;5132461;27;20023;-82
2024/01/09 01:45:20;;;;;;;9.65;1.80;;;4.70;99.90;;;;;;5133718;27;20118;-81
2024/01/09 01:47:47;;;;;;;10.10;1.85;;;4.70;99.90;;;;;;5133924;27;20019;-80
2024/01/09 01:50:15;;;;;;;6.82;1.92;;;4.70;99.90;;;;;;5133446;27;20030;-80
2024/01/09 01:52:43;;;;;;;5.75;2.13;;;4.70;99.90;;;;;;5133226;27;20125;-80
2024/01/09 01:55:13;;;;;;;10.18;2.13;;;4.80;99.90;;;;;;5132483;27;20534;-81
2024/01/09 01:57:42;;;;;;;11.32;2.38;;;4.70;99.90;;;;;;5133721;27;20066;-81
2024/01/09 02:00:08;;;;;;;8.48;2.17;;;4.70;99.90;;;;;;5115110;27;20041;-80
2024/01/09 02:02:35;;;;;;;9.73;2.72;;;4.70;99.90;;;;;;5132951;27;20106;-80
2024/01/09 02:05:05;;;;;;;12.50;2.17;;;4.70;99.90;;;;;;5133074;27;20088;-80
2024/01/09 02:07:33;;;;;;;11.55;2.50;;;4.70;99.90;;;;;;5133306;27;20071;-80
2024/01/09 02:09:59;;;;;;;6.97;1.90;;;4.70;99.90;;;;;;5132451;27;20023;-80
2024/01/09 02:12:25;;;;;;;7.78;1.88;;;4.70;99.90;;;;;;5132120;27;20027;-80
2024/01/09 02:14:51;;;;;;;10.25;2.40;;;4.80;99.90;;;;;;5132079;27;20018;-79
2024/01/09 02:17:17;;;;;;;9.35;2.40;;;4.80;99.90;;;;;;5132667;27;20494;-79
2024/01/09 02:19:42;;;;;;;13.77;2.63;;;4.70;99.90;;;;;;5132794;27;20031;-79
2024/01/09 02:22:08;;;;;;;8.75;1.92;;;4.70;99.90;;;;;;5131918;27;20015;-80
2024/01/09 02:24:34;;;;;;;9.68;2.35;;;4.70;99.90;;;;;;5132837;27;20030;-80
2024/01/09 02:27:19;;;;;;;8.88;2.17;;;4.70;99.90;;;;;;5132394;27;20463;-80
2024/01/09 02:29:49;;;;;;;7.93;2.13;;;4.70;99.90;;;;;;5132048;27;20067;-81
2024/01/09 02:32:19;;;;;;;9.75;2.85;;;4.70;99.90;;;;;;5131932;27;20030;-79
2024/01/09 02:34:46;;;;;;;12.93;2.22;;;4.70;99.90;;;;;;5132235;27;20022;-78
2024/01/09 02:37:12;;;;;;;9.57;1.95;;;4.70;99.90;;;;;;5131674;27;20023;-79
2024/01/09 02:39:37;;;;;;;6.00;1.92;;;4.70;99.90;;;;;;5132095;27;20034;-81
2024/01/09 02:42:04;;;;;;;7.28;1.63;;;4.70;99.90;;;;;;5131173;27;20019;-79
2024/01/09 02:44:29;;;;;;;7.75;1.65;;;4.70;99.90;;;;;;5132065;27;20019;-80
2024/01/09 02:46:55;;;;;;;7.15;2.35;;;4.70;99.90;;;;;;5131442;27;20046;-78
2024/01/09 02:49:21;;;;;;;9.95;2.00;;;4.70;99.90;;;;;;5131921;27;20029;-77
2024/01/09 02:51:46;;;;;;;9.80;2.47;;;4.60;99.90;;;;;;5131776;27;20023;-78
2024/01/09 02:54:12;;;;;;;6.13;1.85;;;4.70;99.90;;;;;;5112917;27;20022;-78
2024/01/09 02:56:39;;;;;;;8.13;2.10;;;4.70;99.90;;;;;;5113754;27;20369;-78
2024/01/09 02:59:05;;;;;;;6.82;1.67;;;4.70;99.90;;;;;;5131492;27;20066;-79
2024/01/09 03:01:31;;;;;;;8.27;1.73;;;4.70;99.90;;;;;;5131775;27;20054;-80
2024/01/09 03:03:57;;;;;;;7.15;1.95;;;4.70;99.90;;;;;;5131231;27;20123;-78
2024/01/09 03:06:23;;;;;;;5.50;2.00;;;4.70;99.90;;;;;;5132085;27;20446;-78
2024/01/09 03:08:48;;;;;;;11.75;2.17;;;4.80;99.90;;;;;;5131929;27;20424;-79
2024/01/09 03:11:15;;;;;;;7.32;1.95;;;4.80;99.90;;;;;;5131164;28;20023;-80
2024/01/09 03:13:40;;;;;;;5.28;1.88;;;4.70;99.90;;;;;;5131753;28;20106;-80
2024/01/09 03:16:10;;;;;;;6.55;2.28;;;4.80;99.90;;;;;;5136640;27;20047;-80
2024/01/09 03:18:36;;;;;;;11.25;2.38;;;4.80;99.90;;;;;;5138148;27;20408;-79
2024/01/09 03:21:02;;;;;;;7.05;1.98;;;4.80;99.90;;;;;;5138158;27;20027;-82
2024/01/09 03:23:28;;;;;;;9.85;1.70;;;4.80;99.90;;;;;;5138748;27;20026;-80
2024/01/09 03:25:53;;;;;;;5.28;1.67;;;4.80;99.90;;;;;;5138354;27;20046;-81
2024/01/09 03:28:19;;;;;;;6.88;1.95;;;4.80;99.90;;;;;;5138143;27;20072;-80
2024/01/09 03:30:45;;;;;;;7.40;1.83;;;4.80;99.90;;;;;;5138011;27;20525;-79
2024/01/09 03:33:11;;;;;;;11.27;1.90;;;4.80;99.90;;;;;;5137789;27;20030;-79
2024/01/09 03:35:36;;;;;;;10.50;1.88;;;4.90;99.90;;;;;;5138210;27;20020;-78
2024/01/09 03:38:02;;;;;;;12.80;2.45;;;4.80;99.90;;;;;;5137646;27;20041;-78
2024/01/09 03:40:28;;;;;;;10.75;2.05;;;4.90;99.90;;;;;;5139022;27;20015;-79
2024/01/09 03:42:54;;;;;;;8.57;2.10;;;4.90;99.90;;;;;;5138299;27;20052;-79
2024/01/09 03:45:20;;;;;;;10.25;2.58;;;4.80;99.90;;;;;;5137639;27;20023;-79
2024/01/09 03:47:46;;;;;;;8.82;1.98;;;4.80;99.90;;;;;;5119485;27;20106;-79
2024/01/09 03:50:11;;;;;;;8.52;2.00;;;4.80;99.90;;;;;;5138033;27;20015;-79
2024/01/09 03:52:37;;;;;;;9.45;1.95;;;4.80;99.90;;;;;;5138353;27;20408;-79
2024/01/09 03:55:03;;;;;;;6.78;2.30;;;4.70;99.90;;;;;;5137497;27;20467;-79
2024/01/09 03:57:29;;;;;;;5.57;2.08;;;4.70;99.90;;;;;;5138262;27;20198;-79
2024/01/09 03:59:54;;;;;;;7.13;1.80;;;4.70;99.90;;;;;;5137848;27;20098;-79
2024/01/09 04:02:20;;;;;;;8.88;2.00;;;4.70;99.90;;;;;;5138346;27;20019;-79
2024/01/09 04:04:46;;;;;;;7.25;1.77;;;4.70;99.90;;;;;;5138053;27;20023;-80
2024/01/09 04:07:13;;;;;;;9.50;2.08;;;4.70;99.90;;;;;;5137349;27;20066;-80
2024/01/09 04:09:38;;;;;;;9.38;2.45;;;4.70;99.90;;;;;;5119180;27;20054;-79
2024/01/09 04:12:04;;;;;;;14.93;2.88;;;4.70;99.90;;;;;;5137751;27;20071;-79
2024/01/09 04:14:30;;;;;;;6.93;1.50;;;4.60;99.90;;;;;;5138033;27;20466;-80
2024/01/09 04:16:56;;;;;;;7.95;2.20;;;4.70;99.90;;;;;;5137820;27;20094;-81
2024/01/09 04:19:22;;;;;;;13.55;2.22;;;4.70;99.90;;;;;;5137695;27;20092;-79
2024/01/09 04:21:48;;;;;;;3.72;1.48;;;4.70;99.90;;;;;;5138222;27;20026;-81
2024/01/09 04:24:13;;;;;;;5.13;1.98;;;4.70;99.90;;;;;;5137154;27;20071;-79
2024/01/09 04:26:39;;;;;;;9.20;2.03;;;4.70;99.90;;;;;;5135990;27;20071;-82
2024/01/09 04:29:05;;;;;;;9.70;1.98;;;4.70;99.90;;;;;;5133940;27;20031;-79
2024/01/09 04:31:31;;;;;;;9.05;1.70;;;4.70;99.90;;;;;;5134591;27;20034;-81
2024/01/09 04:33:56;;;;;;;8.77;1.90;;;4.80;99.90;;;;;;5134490;27;20043;-80
2024/01/09 04:36:22;;;;;;;9.13;1.70;;;4.80;99.90;;;;;;5115487;27;20016;-79
2024/01/09 04:38:48;;;;;;;7.40;1.48;;;4.80;99.90;;;;;;5116039;27;20110;-84
2024/01/09 04:41:17;;;;;;;9.88;2.50;;;4.70;99.90;;;;;;5133517;27;20471;-81
2024/01/09 04:43:46;;;;;;;7.88;1.33;;;4.80;99.90;;;;;;5134423;27;20019;-81
2024/01/09 04:46:12;;;;;;;10.70;1.73;;;4.80;99.90;;;;;;5133448;27;20452;-80
2024/01/09 04:48:38;;;;;;;5.65;1.77;;;4.70;99.90;;;;;;5134427;27;20034;-80
2024/01/09 04:51:05;;;;;;;10.77;2.28;;;4.70;99.90;;;;;;5134108;27;20068;-81
2024/01/09 04:53:30;;;;;;;9.27;2.17;;;4.70;99.90;;;;;;5134342;27;20019;-80
2024/01/09 04:55:56;;;;;;;8.00;1.90;;;4.60;99.90;;;;;;5134102;27;20104;-80
2024/01/09 04:58:22;;;;;;;8.63;1.95;;;4.60;99.90;;;;;;5134457;27;20442;-80
2024/01/09 05:00:47;;;;;;;11.13;2.10;;;4.70;99.90;;;;;;5134821;27;20095;-79
2024/01/09 05:03:13;;;;;;;7.90;2.20;;;4.70;99.90;;;;;;5133096;27;20023;-80
2024/01/09 05:05:39;;;;;;;11.20;2.28;;;4.70;99.90;;;;;;5133692;27;20508;-80
2024/01/09 05:08:05;;;;;;;7.63;1.88;;;4.70;99.90;;;;;;5133549;27;20027;-80
2024/01/09 05:10:31;;;;;;;14.55;2.72;;;4.70;99.90;;;;;;5133773;27;20027;-80
2024/01/09 05:12:58;;;;;;;15.90;2.22;;;4.70;99.90;;;;;;5133951;27;20023;-80
2024/01/09 05:15:23;;;;;;;7.85;2.03;;;4.70;99.90;;;;;;5133207;27;20460;-80
2024/01/09 05:17:49;;;;;;;9.98;2.97;;;4.60;99.90;;;;;;5133726;27;20015;-81
2024/01/09 05:20:16;;;;;;;12.57;2.65;;;4.60;99.90;;;;;;5133246;27;20098;-79
2024/01/09 05:22:42;;;;;;;9.95;2.03;;;4.70;99.90;;;;;;5134181;27;20420;-80
2024/01/09 05:25:08;;;;;;;6.63;1.85;;;4.70;99.90;;;;;;5133512;27;20030;-80
2024/01/09 05:27:34;;;;;;;6.93;2.10;;;4.70;99.90;;;;;;5134334;27;20023;-82
2024/01/09 05:30:00;;;;;;;9.90;2.35;;;4.70;99.90;;;;;;5114623;27;20035;-81
2024/01/09 05:32:26;;;;;;;9.73;2.10;;;4.70;99.90;;;;;;5115391;27;20419;-81
2024/01/09 05:34:52;;;;;;;5.57;1.90;;;4.70;99.90;;;;;;5133720;27;20467;-81
2024/01/09 05:37:18;;;;;;;8.60;2.20;;;4.70;99.90;;;;;;5114839;27;20439;-81
2024/01/09 05:39:46;;;;;;;8.75;1.80;;;4.70;99.90;;;;;;5132809;27;20144;-80
2024/01/09 05:42:12;;;;;;;9.63;2.13;;;4.70;99.90;;;;;;5133676;27;20105;-81
2024/01/09 05:44:38;;;;;;;7.85;2.05;;;4.70;99.90;;;;;;5133611;27;20027;-81
2024/01/09 05:47:04;;;;;;;6.68;1.85;;;4.70;99.90;;;;;;5132432;27;20060;-79
2024/01/09 05:49:30;;;;;;;12.63;2.20;;;4.70;99.90;;;;;;5114747;27;20158;-80
2024/01/09 05:51:55;;;;;;;12.63;2.50;;;4.70;99.90;;;;;;5133098;27;20020;-78
2024/01/09 05:54:21;;;;;;;6.35;1.85;;;4.70;99.90;;;;;;5132825;27;20057;-81
2024/01/09 05:56:47;;;;;;;10.02;1.80;;;4.70;99.90;;;;;;5133165;27;20043;-80
2024/01/09 05:59:12;;;;;;;8.93;2.58;;;4.70;99.90;;;;;;5132501;27;20038;-81
2024/01/09 06:01:38;;;;;;;12.77;2.38;;;4.70;99.90;;;;;;5132613;27;20462;-79
2024/01/09 06:04:04;;;;;;;7.68;2.00;;;4.70;99.90;;;;;;5132173;27;20099;-79
2024/01/09 06:06:30;;;;;;;10.93;2.00;;;4.80;99.90;;;;;;5132495;27;20019;-79
2024/01/09 06:08:56;;;;;;;4.43;1.65;;;4.70;99.90;;;;;;5133031;27;20089;-80
2024/01/09 06:11:22;;;;;;;4.93;1.80;;;4.70;99.90;;;;;;5133005;27;20500;-80
2024/01/09 06:13:47;;;;;;;8.52;1.50;;;4.70;99.90;;;;;;5132823;27;20024;-79
2024/01/09 06:16:13;;;;;;;9.93;2.47;;;4.80;99.90;;;;;;5132343;27;20159;-80
2024/01/09 06:18:39;;;;;;;6.15;1.50;;;4.70;99.90;;;;;;5132775;27;20054;-80
2024/01/09 06:21:05;;;;;;;7.70;2.35;;;4.80;99.90;;;;;;5132415;27;20568;-80
2024/01/09 06:23:31;;;;;;;9.85;2.10;;;4.70;99.90;;;;;;5132383;27;20146;-81
2024/01/09 06:25:56;;;;;;;9.55;2.05;;;4.70;99.90;;;;;;5114147;27;20019;-79
2024/01/09 06:28:22;;;;;;;6.88;1.92;;;4.70;99.90;;;;;;5132771;27;20023;-81
2024/01/09 06:30:48;;;;;;;10.90;1.95;;;4.70;99.90;;;;;;5133105;27;20091;-81
2024/01/09 06:33:13;;;;;;;7.05;1.50;;;4.70;99.90;;;;;;5132093;27;20023;-82
2024/01/09 06:35:39;;;;;;;8.98;2.05;;;4.80;99.90;;;;;;5132718;27;20023;-80
2024/01/09 06:38:05;;;;;;;6.85;1.90;;;4.80;99.90;;;;;;5132715;27;20026;-81
2024/01/09 06:40:30;;;;;;;9.25;1.90;;;4.80;99.90;;;;;;5133014;27;20142;-80
2024/01/09 06:42:56;;;;;;;12.18;1.90;;;4.80;99.90;;;;;;5132110;27;20019;-81
2024/01/09 06:45:22;;;;;;;11.65;2.13;;;4.80;99.90;;;;;;5132156;27;20030;-79
2024/01/09 06:47:47;;;;;;;17.58;2.63;;;4.80;99.90;;;;;;5132206;27;20107;-80
2024/01/09 06:50:14;;;;;;;9.73;2.47;;;4.80;99.90;;;;;;5112641;27;20425;-80
2024/01/09 06:52:40;;;;;;;8.77;1.63;;;4.80;99.90;;;;;;5132155;27;20495;-81
2024/01/09 06:55:06;;;;;;;7.32;1.95;;;4.90;99.90;;;;;;5133136;27;20020;-80
2024/01/09 06:57:32;;;;;;;3.80;1.05;;;4.90;99.90;;;;;;5132551;27;20058;-82
2024/01/09 06:59:58;;;;;;;3.53;1.13;;;4.80;99.90;;;;;;5131896;27;20019;-81
2024/01/09 07:02:23;;;;;;;6.90;2.05;;;4.80;99.90;;;;;;5131631;27;20061;-81
2024/01/09 07:04:49;;;;;;;11.93;2.40;;;4.70;99.90;;;;;;5132302;27;20098;-79
2024/01/09 07:07:15;;;;;;;11.20;2.30;;;4.70;99.90;;;;;;5130980;27;20460;-80
2024/01/09 07:09:41;;;;;;;10.60;2.08;;;4.70;99.90;;;;;;5132078;27;20127;-81
2024/01/09 07:12:09;;;;;;;11.70;2.15;;;4.70;99.90;;;;;;5131553;27;20114;-79
2024/01/09 07:14:36;;;;;;;10.50;2.30;;;4.70;99.90;;;;;;5131896;28;20030;-79
2024/01/09 07:17:03;;;;;;;6.28;1.80;;;4.80;99.90;;;;;;5132227;28;20098;-82
2024/01/09 07:19:30;;;;;;;10.95;2.10;;;4.80;99.90;;;;;;5112881;28;20139;-80
2024/01/09 07:21:56;;;;;;;18.40;2.67;;;4.90;99.90;;;;;;5131833;28;20086;-80
2024/01/09 07:24:22;;;;;;;9.00;1.92;;;4.80;99.90;;;;;;5131284;28;20065;-80
2024/01/09 07:26:47;;;;;;;14.38;2.35;;;4.90;99.90;;;;;;5113462;28;20519;-79
2024/01/09 07:29:16;;;;;;;10.38;2.47;;;4.90;99.90;;;;;;5112828;28;20031;-80
2024/01/09 07:31:43;;;;;;;14.10;2.42;;;4.90;99.90;;;;;;5131789;28;20016;-83
2024/01/09 07:34:08;;;;;;;9.90;2.10;;;4.90;99.90;;;;;;5131857;28;20076;-80
2024/01/09 07:36:34;;;;;;;12.50;1.88;;;4.90;99.90;;;;;;5131873;28;20433;-79
2024/01/09 07:39:00;;;;;;;5.72;1.73;;;4.90;99.90;;;;;;5131535;28;20341;-80
2024/01/09 07:41:26;;;;;;;14.70;3.08;;;4.90;99.90;;;;;;5130712;28;20042;-80
2024/01/09 07:43:53;;;;;;;14.18;3.00;;;4.90;99.90;;;;;;5131244;28;20391;-78
2024/01/09 07:46:19;;;;;;;7.10;2.60;;;4.80;99.90;;;;;;5130801;28;20073;-79
2024/01/09 07:48:44;;;;;;;16.33;2.38;;;4.90;99.90;;;;;;5131235;28;20072;-79
2024/01/09 07:51:10;;;;;;;16.92;2.65;;;4.90;99.90;;;;;;5131338;28;20060;-79
2024/01/09 07:53:36;;;;;;;13.80;2.15;;;4.90;99.90;;;;;;5131064;28;20026;-79
2024/01/09 07:56:02;;;;;;;9.90;1.88;;;4.90;99.90;;;;;;5130902;28;20383;-80
2024/01/09 07:58:27;;;;;;;8.73;2.20;;;4.90;99.90;;;;;;5130440;28;20026;-79
2024/01/09 08:00:56;;;;;;;17.40;2.83;;;4.90;99.90;;;;;;5131473;27;20031;-79
2024/01/09 08:03:22;;;;;;;11.70;2.28;;;4.90;99.90;;;;;;5134660;27;20019;-79
2024/01/09 08:05:47;;;;;;;10.73;2.78;;;4.90;99.90;;;;;;5135322;27;20470;-80
2024/01/09 08:08:13;;;;;;;12.10;2.50;;;4.90;99.90;;;;;;5116079;27;20052;-80
2024/01/09 08:10:39;;;;;;;9.23;1.90;;;5.00;99.90;;;;;;5116477;27;20359;-80
2024/01/09 08:13:04;;;;;;;12.15;2.20;;;4.90;99.90;;;;;;5116056;27;20019;-80
2024/01/09 08:15:30;;;;;;;11.98;2.67;;;4.90;99.90;;;;;;5116030;27;20475;-80
2024/01/09 08:17:56;;;;;;;10.38;2.63;;;4.90;99.90;;;;;;5116330;27;20031;-79
2024/01/09 08:20:22;;;;;;;9.90;2.53;;;4.90;99.90;;;;;;5134730;27;20122;-79
2024/01/09 08:22:48;;;;;;;10.82;2.60;;;4.90;99.90;;;;;;5134519;27;20109;-83
2024/01/09 08:25:14;;;;;;;11.95;2.70;;;4.90;99.90;;;;;;5134579;27;20027;-80
2024/01/09 08:27:40;;;;;;;14.55;2.30;;;4.90;99.90;;;;;;5135139;27;20112;-80
2024/01/09 08:30:08;;;;;;;11.40;2.40;;;4.90;99.90;;;;;;5135286;27;20038;-81
2024/01/09 08:32:34;;;;;;;7.18;2.13;;;4.90;99.90;;;;;;5134243;27;20112;-79
2024/01/09 08:35:00;;;;;;;14.50;2.78;;;4.90;99.90;;;;;;5116806;27;20027;-80
2024/01/09 08:37:26;;;;;;;9.02;2.00;;;4.90;99.90;;;;;;5134391;27;20016;-79
2024/01/09 08:39:51;;;;;;;10.05;2.17;;;4.90;99.90;;;;;;5135171;27;20059;-79
2024/01/09 08:42:17;;;;;;;16.30;3.58;;;4.90;99.90;;;;;;5134506;27;20046;-80
2024/01/09 08:44:43;;;;;;;9.60;2.42;;;4.90;99.90;;;;;;5109053;27;20508;-80
2024/01/09 08:47:10;;;;;;;10.88;2.10;;;4.90;99.90;;;;;;5123689;27;20463;-82
2024/01/09 08:49:36;;;;;;;13.40;2.10;;;4.90;99.90;;;;;;5127512;27;20043;-80
2024/01/09 08:52:02;;;;;;;10.65;2.20;;;4.90;99.90;;;;;;5134301;27;20030;-79
2024/01/09 08:54:27;;;;;;;13.30;2.38;;;4.90;99.90;;;;;;5133571;27;20102;-80
2024/01/09 08:56:53;;;;;;;15.15;3.15;;;4.90;99.90;;;;;;5134692;27;20043;-80
2024/01/09 08:59:19;;;;;;;9.90;2.92;;;4.90;99.90;;;;;;5124119;27;20036;-80
2024/01/09 09:01:44;;;;;;;13.38;2.97;;;4.90;99.90;;;;;;5124440;27;20030;-80
2024/01/09 09:04:10;;;;;;;8.60;1.55;;;4.90;99.90;;;;;;5098549;28;20022;-80
2024/01/09 09:06:36;;;;;;;10.43;2.08;;;4.90;99.90;;;;;;5113063;28;20369;-80
2024/01/09 09:09:01;;;;;;;8.55;2.22;;;4.90;99.90;;;;;;5113660;28;20023;-81
2024/01/09 09:11:27;;;;;;;14.70;2.95;;;4.90;99.90;;;;;;5112759;28;20108;-81
2024/01/09 09:13:53;;;;;;;8.27;2.45;;;4.90;99.90;;;;;;5112872;28;20030;-81
2024/01/09 09:16:18;;;;;;;13.50;2.53;;;4.90;99.90;;;;;;5112790;28;20023;-80
2024/01/09 09:18:44;;;;;;;12.98;2.55;;;4.90;99.90;;;;;;5113567;28;20076;-81
2024/01/09 09:21:10;;;;;;;11.80;2.25;;;5.00;99.90;;;;;;5113193;28;20028;-80
2024/01/09 09:23:36;;;;;;;14.13;2.40;;;5.00;99.90;;;;;;5117902;27;20019;-79
2024/01/09 09:26:03;;;;;;;12.48;2.60;;;4.90;99.90;;;;;;5122011;27;20066;-79
2024/01/09 09:28:29;;;;;;;16.52;2.75;;;5.00;99.90;;;;;;5101007;28;20023;-79
2024/01/09 09:30:55;;;;;;;10.85;2.70;;;4.90;99.90;;;;;;5113006;28;20027;-79
2024/01/09 09:33:20;;;;;;;16.77;2.30;;;4.90;99.90;;;;;;5094140;28;20024;-80
2024/01/09 09:35:46;;;;;;;9.35;2.38;;;4.90;99.90;;;;;;5094652;28;20015;-80
2024/01/09 09:38:13;;;;;;;7.95;2.88;;;4.90;99.90;;;;;;5112666;28;20020;-77
2024/01/09 09:40:41;;;;;;;11.30;2.60;;;4.90;99.90;;;;;;5112319;28;20118;-77
2024/01/09 09:43:14;;;;;;;13.07;2.25;;;5.00;99.90;;;;;;5094541;28;20050;-77
2024/01/09 09:45:43;;;;;;;10.90;2.05;;;5.00;99.90;;;;;;5112077;28;20030;-80
2024/01/09 09:48:10;;;;;;;8.68;2.15;;;5.00;99.90;;;;;;5112462;28;20024;-79
2024/01/09 09:50:36;;;;;;;12.55;2.65;;;5.00;99.90;;;;;;5112264;28;20063;-80
2024/01/09 09:53:02;;;;;;;8.02;2.17;;;5.00;99.90;;;;;;5112960;28;20016;-80
2024/01/09 09:55:27;;;;;;;10.05;2.03;;;4.90;99.90;;;;;;5115182;27;20031;-80
2024/01/09 09:57:53;;;;;;;12.18;2.45;;;5.00;99.90;;;;;;5120971;27;20027;-79
2024/01/09 10:00:19;;;;;;;13.90;2.50;;;5.00;99.90;;;;;;5105335;27;20037;-79
2024/01/09 10:02:48;;;;;;;9.48;2.55;;;5.00;99.90;;;;;;5120872;27;20098;-78
2024/01/09 10:05:16;;;;;;;9.02;2.38;;;5.00;99.90;;;;;;5129379;27;20066;-79
2024/01/09 10:07:46;;;;;;;8.55;2.67;;;5.00;99.90;;;;;;5132742;27;20114;-79
2024/01/09 10:10:13;;;;;;;13.70;2.88;;;5.00;99.90;;;;;;5128356;27;20066;-78
2024/01/09 10:12:39;;;;;;;10.05;2.85;;;5.00;99.90;;;;;;5119888;27;20034;-78
2024/01/09 10:15:07;;;;;;;10.77;2.45;;;5.00;99.90;;;;;;5120320;27;20020;-79
2024/01/09 10:17:36;;;;;;;13.02;2.95;;;5.10;99.90;;;;;;5111653;28;20027;-77
2024/01/09 10:20:10;;;;;;;14.27;2.25;;;5.10;99.90;;;;;;5094269;28;20023;-78
2024/01/09 10:22:38;;;;;;;14.02;2.33;;;5.10;99.90;;;;;;5112095;28;20034;-81
2024/01/09 10:25:11;;;;;;;12.23;3.22;;;5.10;99.90;;;;;;5094382;27;20478;-79
2024/01/09 10:27:40;;;;;;;9.82;2.42;;;5.20;99.90;;;;;;5135350;27;20038;-80
2024/01/09 10:30:10;;;;;;;14.27;2.20;;;5.10;99.90;;;;;;5136314;27;20047;-79
2024/01/09 10:32:38;;;;;;;11.43;2.45;;;5.10;99.90;;;;;;5153382;27;20026;-78
2024/01/09 10:35:04;;;;;;;10.10;2.10;;;5.10;99.90;;;;;;5144525;27;20027;-78
2024/01/09 10:37:33;;;;;;;14.20;2.50;;;5.10;99.90;;;;;;5121926;27;20019;-78
2024/01/09 10:39:59;;;;;;;13.48;2.70;;;5.20;99.90;;;;;;5121928;27;20023;-78
2024/01/09 10:42:27;;;;;;;10.18;2.10;;;5.20;99.90;;;;;;5131674;27;20152;-78
2024/01/09 10:44:57;;;;;;;12.77;2.67;;;5.20;99.90;;;;;;5131863;27;20636;-79
2024/01/09 10:47:24;;;;;;;13.52;2.50;;;5.20;99.90;;;;;;5131571;27;20026;-78
2024/01/09 10:49:51;;;;;;;11.18;2.45;;;5.20;99.90;;;;;;5131931;27;20027;-77
2024/01/09 10:52:18;;;;;;;18.58;2.92;;;5.20;99.90;;;;;;5134024;27;20022;-78
2024/01/09 10:54:44;;;;;;;11.70;2.67;;;5.20;99.90;;;;;;5131661;27;20117;-78
2024/01/09 10:57:12;;;;;;;8.45;2.72;;;5.20;99.90;;;;;;5132731;27;20036;-77
2024/01/09 10:59:40;;;;;;;9.65;2.58;;;5.30;99.90;;;;;;5131813;27;20050;-79
2024/01/09 11:02:15;;;;;;;13.65;2.63;;;5.30;99.90;;;;;;5131586;27;20055;-77
2024/01/09 11:04:45;;;;;;;9.25;2.70;;;5.30;99.90;;;;;;5130814;27;20023;-78
2024/01/09 11:07:16;;;;;;;16.95;2.78;;;5.30;99.90;;;;;;5132470;27;20035;-79
2024/01/09 11:09:46;;;;;;;11.13;2.08;;;5.30;99.90;;;;;;5132245;27;20038;-78
2024/01/09 11:12:20;;;;;;;12.65;2.50;;;5.30;99.90;;;;;;5132092;27;20045;-78
2024/01/09 11:14:52;;;;;;;10.13;2.13;;;5.30;99.90;;;;;;5130848;27;20019;-79
2024/01/09 11:17:20;;;;;;;11.43;2.63;;;5.30;99.90;;;;;;5131233;28;20022;-77
2024/01/09 11:19:45;;;;;;;9.35;2.30;;;5.30;99.90;;;;;;5130406;28;20453;-77
2024/01/09 11:22:13;;;;;;;7.35;2.03;;;5.30;99.90;;;;;;5131393;28;20058;-78
2024/01/09 11:24:38;;;;;;;8.77;2.15;;;5.30;99.90;;;;;;5130545;28;20076;-80
2024/01/09 11:27:12;;;;;;;3.72;1.35;;;5.30;99.90;;;;;;5131452;28;20016;-80
2024/01/09 11:29:53;;;;;;;13.20;2.15;;;5.30;99.90;;;;;;5094808;28;20028;-83
2024/01/09 11:32:27;;;;;;;9.07;2.30;;;5.30;99.90;;;;;;5131247;28;20123;-79
2024/01/09 11:35:17;;;;;;;13.13;2.55;;;5.30;99.90;;;;;;5131059;28;20150;-80
2024/01/09 11:37:51;;;;;;;13.15;2.20;;;5.30;99.90;;;;;;5134135;27;20046;-78
2024/01/09 11:40:18;;;;;;;12.48;2.00;;;5.30;99.90;;;;;;5122515;27;20346;-80
2024/01/09 11:42:46;;;;;;;13.02;2.50;;;5.40;99.90;;;;;;5122355;27;20027;-80
2024/01/09 11:45:13;;;;;;;12.02;2.38;;;5.40;99.90;;;;;;5124680;27;20046;-83
2024/01/09 11:47:43;;;;;;;15.98;3.13;;;5.30;99.90;;;;;;5126266;27;20340;-80
2024/01/09 11:50:09;;;;;;;18.20;2.90;;;5.30;99.90;;;;;;5125528;27;20034;-82
2024/01/09 11:52:37;;;;;;;11.73;2.45;;;5.30;99.90;;;;;;5111056;27;20122;-80
2024/01/09 11:55:12;;;;;;;12.85;2.88;;;5.30;99.90;;;;;;5135422;27;20031;-82
2024/01/09 11:57:40;;;;;;;13.18;2.72;;;5.30;99.90;;;;;;5135000;27;20062;-78
2024/01/09 12:00:07;;;;;;;10.38;2.88;;;5.30;99.90;;;;;;5135819;27;20037;-81
2024/01/09 12:02:34;;;;;;;13.50;2.58;;;5.20;99.90;;;;;;5135245;27;20098;-82
2024/01/09 12:05:08;;;;;;;9.48;2.20;;;5.30;99.90;;;;;;5135746;27;20035;-84
2024/01/09 12:07:39;;;;;;;11.88;2.10;;;5.30;99.90;;;;;;5135166;27;20027;-80
2024/01/09 12:10:06;;;;;;;10.25;2.30;;;5.20;99.90;;;;;;5135481;27;20031;-79
2024/01/09 12:12:32;;;;;;;10.88;2.35;;;5.20;99.90;;;;;;5134607;27;20018;-80
2024/01/09 12:14:59;;;;;;;5.18;1.38;;;5.10;99.90;;;;;;5117314;27;20440;-81
2024/01/09 12:17:33;;;;;;;7.75;2.47;;;5.00;99.90;;;;;;5134024;27;20058;-80
2024/01/09 12:20:00;;;;;;;13.00;2.15;;;5.10;99.90;;;;;;5134748;27;20031;-79
2024/01/09 12:22:26;;;;;;;17.50;2.90;;;5.10;99.90;;;;;;5134508;27;20023;-80
2024/01/09 12:24:54;;;;;;;10.10;2.25;;;5.20;99.90;;;;;;5135261;27;20050;-80
2024/01/09 12:27:23;;;;;;;8.75;2.72;;;5.20;99.90;;;;;;5133122;27;20384;-78
2024/01/09 12:29:53;;;;;;;16.60;2.55;;;5.30;99.90;;;;;;5124094;27;20023;-78
2024/01/09 12:32:20;;;;;;;10.93;2.53;;;5.30;99.90;;;;;;5122808;27;20045;-79
2024/01/09 12:34:47;;;;;;;10.85;3.03;;;5.30;99.90;;;;;;5133744;27;20547;-80
2024/01/09 12:37:13;;;;;;;12.20;2.42;;;5.20;99.90;;;;;;5129496;27;20083;-80
2024/01/09 12:39:39;;;;;;;11.02;2.47;;;5.20;99.90;;;;;;5115366;27;20015;-80
2024/01/09 12:42:12;;;;;;;12.00;2.90;;;5.20;99.90;;;;;;5149354;27;20060;-80
2024/01/09 12:44:38;;;;;;;14.02;2.72;;;5.20;99.90;;;;;;5154449;27;20042;-79
2024/01/09 12:47:06;;;;;;;8.18;1.92;;;5.20;99.90;;;;;;5136188;27;20366;-79
2024/01/09 12:49:45;;;;;;;15.20;2.97;;;5.20;99.90;;;;;;5153577;27;20489;-81